Time;durP1;ratioP1;P1;durP2;ratioP2;P2;SDS_P1;SDS_P2;PMS_P1;PMS_P2;Temp;Humidity;BMP_temperature;BMP_pressure;BME280_temperature;BME280_humidity;BME280_pressure;Samples;Min_cycle;Max_cycle;Signal;HPM_P1;HPM_P2
2022/09/07 00:00:15;;;;;;;5.20;2.70;;;16.00;99.90;;;;;;4894575;29;20192;-52
2022/09/07 00:02:41;;;;;;;6.27;3.00;;;16.10;99.90;;;;;;4907930;29;20215;-54
2022/09/07 00:05:07;;;;;;;5.20;2.97;;;16.10;99.90;;;;;;4915145;29;20987;-52
2022/09/07 00:07:33;;;;;;;4.20;3.13;;;16.10;99.90;;;;;;4896108;29;20214;-52
2022/09/07 00:09:59;;;;;;;8.00;3.03;;;16.10;99.90;;;;;;4895133;29;20444;-52
2022/09/07 00:12:24;;;;;;;3.70;3.00;;;16.00;99.90;;;;;;4894409;29;20435;-52
2022/09/07 00:14:50;;;;;;;3.90;3.00;;;16.00;99.90;;;;;;4895904;29;20279;-52
2022/09/07 00:17:16;;;;;;;7.20;3.10;;;15.90;99.90;;;;;;4896048;29;20266;-52
2022/09/07 00:19:41;;;;;;;3.40;3.10;;;15.90;99.90;;;;;;4914718;29;20179;-53
2022/09/07 00:22:07;;;;;;;8.63;3.10;;;15.90;99.90;;;;;;4903436;29;20705;-53
2022/09/07 00:24:33;;;;;;;5.03;3.20;;;15.90;99.90;;;;;;4895746;29;20175;-52
2022/09/07 00:26:58;;;;;;;3.80;2.83;;;15.90;99.90;;;;;;4895552;29;20710;-52
2022/09/07 00:29:24;;;;;;;5.50;2.90;;;15.90;99.90;;;;;;4890565;29;20200;-52
2022/09/07 00:31:50;;;;;;;8.23;3.13;;;15.90;99.90;;;;;;4870800;29;20446;-52
2022/09/07 00:34:15;;;;;;;5.80;3.03;;;15.90;99.90;;;;;;4876235;29;20192;-53
2022/09/07 00:36:41;;;;;;;7.73;2.70;;;15.90;99.90;;;;;;4876353;29;20575;-52
2022/09/07 00:39:07;;;;;;;14.60;7.40;;;15.80;99.90;;;;;;4877004;29;20636;-52
2022/09/07 00:41:33;;;;;;;9.30;7.10;;;15.80;99.90;;;;;;4875530;29;20228;-52
2022/09/07 00:44:37;;;;;;;4.20;3.00;;;15.80;99.90;;;;;;4876554;29;20346;-52
2022/09/07 00:47:10;;;;;;;3.50;2.97;;;15.80;99.90;;;;;;4876910;29;20267;-52
2022/09/07 00:49:38;;;;;;;4.40;3.00;;;15.80;99.90;;;;;;4869663;29;20456;-52
2022/09/07 00:52:06;;;;;;;3.47;3.17;;;15.80;99.90;;;;;;4875675;29;20456;-52
2022/09/07 00:54:38;;;;;;;3.07;2.77;;;15.90;99.90;;;;;;4876703;29;20448;-54
2022/09/07 00:57:04;;;;;;;3.90;3.10;;;15.90;99.90;;;;;;4878790;29;20459;-54
2022/09/07 00:59:34;;;;;;;4.43;3.43;;;16.00;99.90;;;;;;4868369;29;20467;-55
2022/09/07 01:02:00;;;;;;;6.47;3.30;;;15.90;99.90;;;;;;4865917;29;20484;-55
2022/09/07 01:04:26;;;;;;;5.80;3.70;;;16.00;99.90;;;;;;4867431;29;20822;-55
2022/09/07 01:06:54;;;;;;;4.60;3.27;;;15.90;99.90;;;;;;4860586;29;20457;-55
2022/09/07 01:09:29;;;;;;;10.30;3.13;;;15.90;99.90;;;;;;4864302;29;20448;-55
2022/09/07 01:11:58;;;;;;;4.10;3.50;;;15.90;99.90;;;;;;4863547;29;20463;-55
2022/09/07 01:14:30;;;;;;;4.93;3.10;;;15.90;99.90;;;;;;4871238;29;20449;-55
2022/09/07 01:17:07;;;;;;;3.47;3.17;;;15.90;99.90;;;;;;4876887;29;20428;-55
2022/09/07 01:20:07;;;;;;;4.07;2.97;;;15.90;99.90;;;;;;4876403;29;20436;-55
2022/09/07 01:23:02;;;;;;;7.90;3.50;;;15.90;99.90;;;;;;4887831;29;20957;-55
2022/09/07 01:25:51;;;;;;;5.40;3.47;;;16.00;99.90;;;;;;4876562;29;20440;-55
2022/09/07 01:28:25;;;;;;;6.33;3.27;;;15.90;99.90;;;;;;4886977;29;20496;-55
2022/09/07 01:30:58;;;;;;;3.97;3.67;;;16.00;99.90;;;;;;4873074;29;20451;-55
2022/09/07 01:33:39;;;;;;;8.07;3.60;;;15.90;99.90;;;;;;4894643;29;20467;-55
2022/09/07 01:36:26;;;;;;;5.07;3.20;;;15.90;99.90;;;;;;4894297;29;20451;-55
2022/09/07 01:38:56;;;;;;;4.27;3.37;;;15.90;99.90;;;;;;4895188;29;20431;-55
2022/09/07 01:41:38;;;;;;;6.23;3.27;;;16.00;99.90;;;;;;4894145;29;20443;-55
2022/09/07 01:44:11;;;;;;;5.07;3.60;;;16.00;99.90;;;;;;4895049;29;20413;-54
2022/09/07 01:46:52;;;;;;;3.47;3.17;;;15.90;99.90;;;;;;4893690;29;20459;-54
2022/09/07 01:49:47;;;;;;;14.13;3.47;;;16.00;99.90;;;;;;4889354;29;20542;-55
2022/09/07 01:52:18;;;;;;;6.47;2.70;;;15.90;99.90;;;;;;4876362;29;20463;-56
2022/09/07 01:54:50;;;;;;;7.33;2.93;;;15.90;99.90;;;;;;4877184;29;22333;-56
2022/09/07 01:57:24;;;;;;;4.93;3.53;;;15.90;99.90;;;;;;4877803;29;20448;-52
2022/09/07 01:59:58;;;;;;;4.90;3.23;;;15.90;99.90;;;;;;4875868;29;22691;-52
2022/09/07 02:02:28;;;;;;;4.07;3.03;;;15.90;99.90;;;;;;4878284;29;20481;-52
2022/09/07 02:05:07;;;;;;;3.50;3.20;;;15.90;99.90;;;;;;4876429;29;20447;-52
2022/09/07 02:07:40;;;;;;;4.30;3.27;;;15.90;99.90;;;;;;4876771;29;20440;-52
2022/09/07 02:10:10;;;;;;;6.30;3.53;;;15.90;99.90;;;;;;4879800;29;20455;-52
2022/09/07 02:12:41;;;;;;;3.70;3.30;;;15.90;99.90;;;;;;4879929;29;20487;-52
2022/09/07 02:15:15;;;;;;;6.93;3.77;;;15.90;99.90;;;;;;4880597;29;20449;-52
2022/09/07 02:17:49;;;;;;;4.97;3.30;;;15.90;99.90;;;;;;4883520;29;21318;-52
2022/09/07 02:20:20;;;;;;;3.50;3.20;;;15.80;99.90;;;;;;4881391;29;21082;-52
2022/09/07 02:22:53;;;;;;;3.23;3.00;;;15.80;99.90;;;;;;4879622;29;20475;-52
2022/09/07 02:25:25;;;;;;;4.13;3.50;;;15.80;99.90;;;;;;4880037;29;20499;-52
2022/09/07 02:28:02;;;;;;;5.20;3.50;;;15.80;99.90;;;;;;4874297;29;20507;-52
2022/09/07 02:30:28;;;;;;;4.00;3.30;;;15.80;99.90;;;;;;4866498;29;20536;-52
2022/09/07 02:32:55;;;;;;;7.43;3.50;;;15.80;99.90;;;;;;4867486;29;20473;-52
2022/09/07 02:35:21;;;;;;;8.43;3.57;;;15.70;99.90;;;;;;4866686;29;20247;-52
2022/09/07 02:37:48;;;;;;;4.47;3.50;;;15.70;99.90;;;;;;4865722;29;20998;-52
2022/09/07 02:40:14;;;;;;;4.30;3.63;;;15.70;99.90;;;;;;4865698;29;20456;-52
2022/09/07 02:42:41;;;;;;;6.83;3.70;;;15.70;99.90;;;;;;4865669;29;20514;-52
2022/09/07 02:45:08;;;;;;;3.37;3.10;;;15.80;99.90;;;;;;4866869;29;20187;-52
2022/09/07 02:47:49;;;;;;;4.00;3.40;;;15.80;99.90;;;;;;4867688;29;20480;-59
2022/09/07 02:50:39;;;;;;;5.03;3.30;;;15.80;99.90;;;;;;4866626;29;20464;-52
2022/09/07 02:53:32;;;;;;;6.90;3.60;;;15.70;99.90;;;;;;4866655;29;20483;-52
2022/09/07 02:56:05;;;;;;;4.80;3.50;;;15.70;99.90;;;;;;4865725;29;20538;-52
2022/09/07 02:58:39;;;;;;;9.20;3.50;;;15.70;99.90;;;;;;4867227;29;20811;-52
2022/09/07 03:01:08;;;;;;;4.03;3.50;;;15.70;99.90;;;;;;4865327;29;20457;-52
2022/09/07 03:03:59;;;;;;;3.40;3.10;;;15.70;99.90;;;;;;4866950;29;20511;-52
2022/09/07 03:06:32;;;;;;;5.37;3.60;;;15.70;99.90;;;;;;4866223;29;22356;-52
2022/09/07 03:09:03;;;;;;;8.00;3.80;;;15.70;99.90;;;;;;4886082;29;20459;-52
2022/09/07 03:11:29;;;;;;;4.70;3.60;;;15.60;99.90;;;;;;4883934;29;20470;-52
2022/09/07 03:14:18;;;;;;;5.00;3.90;;;15.60;99.90;;;;;;4885470;29;20783;-52
2022/09/07 03:16:46;;;;;;;6.00;3.60;;;15.50;99.90;;;;;;4889281;29;20802;-52
2022/09/07 03:19:11;;;;;;;4.80;3.70;;;15.50;99.90;;;;;;4886652;29;20475;-52
2022/09/07 03:21:37;;;;;;;4.60;4.03;;;15.50;99.90;;;;;;4887456;29;20444;-52
2022/09/07 03:24:03;;;;;;;4.70;3.97;;;15.40;99.90;;;;;;4895480;29;20199;-52
2022/09/07 03:26:29;;;;;;;6.80;4.07;;;15.40;99.90;;;;;;4892967;29;20203;-53
2022/09/07 03:28:55;;;;;;;5.07;3.80;;;15.40;99.90;;;;;;4893548;29;21001;-52
2022/09/07 03:31:20;;;;;;;6.07;3.83;;;15.40;99.90;;;;;;4893605;29;20200;-52
2022/09/07 03:33:46;;;;;;;3.83;3.53;;;15.40;99.90;;;;;;4896261;29;21272;-52
2022/09/07 03:36:12;;;;;;;6.30;3.67;;;15.50;99.90;;;;;;4889921;29;20219;-52
2022/09/07 03:38:37;;;;;;;4.37;3.80;;;15.50;99.90;;;;;;4878648;29;20204;-52
2022/09/07 03:41:06;;;;;;;4.20;3.80;;;15.50;99.90;;;;;;4891652;29;20211;-52
2022/09/07 03:43:32;;;;;;;11.37;4.57;;;15.50;99.90;;;;;;4896167;29;20266;-52
2022/09/07 03:45:58;;;;;;;4.10;3.70;;;15.50;99.90;;;;;;4894315;29;20449;-52
2022/09/07 03:48:24;;;;;;;6.53;4.37;;;15.50;99.90;;;;;;4894699;29;20451;-55
2022/09/07 03:51:07;;;;;;;5.03;4.20;;;15.40;99.90;;;;;;4895475;29;20439;-55
2022/09/07 03:53:35;;;;;;;6.77;4.87;;;15.40;99.90;;;;;;4885619;29;20990;-55
2022/09/07 03:56:06;;;;;;;6.73;3.93;;;15.40;99.90;;;;;;4887436;29;20462;-55
2022/09/07 03:58:33;;;;;;;6.37;3.90;;;15.50;99.90;;;;;;4885827;29;20779;-55
2022/09/07 04:01:04;;;;;;;5.67;3.90;;;15.50;99.90;;;;;;4882391;29;20456;-55
2022/09/07 04:03:30;;;;;;;6.03;4.10;;;15.40;99.90;;;;;;4877826;29;20989;-52
2022/09/07 04:05:58;;;;;;;8.43;4.40;;;15.40;99.90;;;;;;4885845;29;20459;-52
2022/09/07 04:08:29;;;;;;;5.20;4.10;;;15.40;99.90;;;;;;4894652;29;20196;-52
2022/09/07 04:10:56;;;;;;;9.70;5.00;;;15.50;99.90;;;;;;4894505;29;20480;-52
2022/09/07 04:13:22;;;;;;;4.63;4.23;;;15.50;99.90;;;;;;4894156;29;20454;-52
2022/09/07 04:15:48;;;;;;;6.87;4.30;;;15.50;99.90;;;;;;4891034;29;20527;-52
2022/09/07 04:18:13;;;;;;;5.40;4.17;;;15.50;99.90;;;;;;4896284;29;20891;-56
2022/09/07 04:20:39;;;;;;;6.27;4.63;;;15.50;99.90;;;;;;4893729;29;20282;-52
2022/09/07 04:23:04;;;;;;;4.83;4.00;;;15.50;99.90;;;;;;4893941;29;20211;-52
2022/09/07 04:25:30;;;;;;;8.93;4.40;;;15.50;99.90;;;;;;4877928;29;20188;-53
2022/09/07 04:27:57;;;;;;;6.27;4.33;;;15.50;99.90;;;;;;4886766;29;20227;-52
2022/09/07 04:30:22;;;;;;;6.13;4.30;;;15.50;99.90;;;;;;4864410;29;20211;-52
2022/09/07 04:32:48;;;;;;;5.77;4.20;;;15.50;99.90;;;;;;4871147;29;20465;-52
2022/09/07 04:35:14;;;;;;;5.40;4.40;;;15.50;99.90;;;;;;4873649;29;20204;-52
2022/09/07 04:37:40;;;;;;;5.67;4.60;;;15.50;99.90;;;;;;4876994;29;20250;-52
2022/09/07 04:40:05;;;;;;;5.17;3.83;;;15.50;99.90;;;;;;4874534;29;20532;-52
2022/09/07 04:42:31;;;;;;;7.10;4.80;;;15.50;99.90;;;;;;4875079;29;20224;-52
2022/09/07 04:44:57;;;;;;;6.73;4.80;;;15.50;99.90;;;;;;4875728;29;20459;-52
2022/09/07 04:47:22;;;;;;;6.23;4.13;;;15.50;99.90;;;;;;4875677;29;20275;-52
2022/09/07 04:49:52;;;;;;;7.40;4.80;;;15.50;99.90;;;;;;4874837;29;20207;-52
2022/09/07 04:52:18;;;;;;;5.33;4.70;;;15.50;99.90;;;;;;4877033;29;20194;-54
2022/09/07 04:54:47;;;;;;;4.80;4.30;;;15.50;99.90;;;;;;4872276;29;20457;-55
2022/09/07 04:57:12;;;;;;;6.40;4.70;;;15.50;99.90;;;;;;4873171;29;20461;-55
2022/09/07 04:59:38;;;;;;;8.70;4.83;;;15.50;99.90;;;;;;4876148;29;20452;-55
2022/09/07 05:02:03;;;;;;;9.00;5.40;;;15.50;99.90;;;;;;4875869;29;20249;-54
2022/09/07 05:04:29;;;;;;;9.20;4.70;;;15.60;99.90;;;;;;4873432;29;20189;-54
2022/09/07 05:06:55;;;;;;;8.00;4.97;;;15.60;99.90;;;;;;4875156;29;20204;-55
2022/09/07 05:09:20;;;;;;;13.93;4.60;;;15.60;99.90;;;;;;4875071;29;20195;-54
2022/09/07 05:11:46;;;;;;;9.30;5.07;;;15.60;99.90;;;;;;4874928;29;20189;-54
2022/09/07 05:14:12;;;;;;;9.20;5.53;;;15.60;99.90;;;;;;4875782;29;20208;-55
2022/09/07 05:16:37;;;;;;;13.10;5.50;;;15.60;99.90;;;;;;4875412;29;20251;-55
2022/09/07 05:19:04;;;;;;;7.60;5.90;;;15.80;99.90;;;;;;4875702;29;20196;-54
2022/09/07 05:21:33;;;;;;;9.57;4.93;;;16.00;99.90;;;;;;4875669;29;20268;-54
2022/09/07 05:24:00;;;;;;;6.53;4.83;;;16.10;99.90;;;;;;4859683;29;20474;-54
2022/09/07 05:26:28;;;;;;;10.60;5.20;;;16.10;99.90;;;;;;4875731;29;20812;-55
2022/09/07 05:28:54;;;;;;;11.20;4.60;;;16.10;99.90;;;;;;4882745;29;20547;-55
2022/09/07 05:31:22;;;;;;;7.27;4.80;;;16.10;99.90;;;;;;4869552;29;20459;-54
2022/09/07 05:33:52;;;;;;;10.83;5.80;;;16.10;99.90;;;;;;4889599;29;20453;-55
2022/09/07 05:36:19;;;;;;;9.03;6.00;;;16.10;99.90;;;;;;4881933;29;20510;-54
2022/09/07 05:38:45;;;;;;;14.43;5.20;;;16.10;99.90;;;;;;4881364;29;20557;-54
2022/09/07 05:41:25;;;;;;;7.40;5.27;;;16.20;99.90;;;;;;4870271;29;20459;-55
2022/09/07 05:43:53;;;;;;;6.17;5.57;;;16.30;99.90;;;;;;4875103;29;20464;-55
2022/09/07 05:46:19;;;;;;;9.27;4.90;;;16.40;99.90;;;;;;4894629;29;21385;-55
2022/09/07 05:48:45;;;;;;;7.23;5.40;;;16.40;99.90;;;;;;4868588;29;20461;-55
2022/09/07 05:51:12;;;;;;;6.73;5.37;;;16.30;99.90;;;;;;4880173;29;20459;-55
2022/09/07 05:53:41;;;;;;;9.50;5.07;;;16.30;99.90;;;;;;4898179;29;20634;-56
2022/09/07 05:56:07;;;;;;;5.97;4.73;;;16.30;99.90;;;;;;4881160;29;21339;-54
2022/09/07 05:58:34;;;;;;;7.73;5.40;;;16.30;99.90;;;;;;4889602;29;20433;-55
2022/09/07 06:01:05;;;;;;;8.70;4.87;;;16.30;99.90;;;;;;4879590;29;20461;-55
2022/09/07 06:03:31;;;;;;;9.53;5.20;;;16.40;99.90;;;;;;4876620;29;20488;-55
2022/09/07 06:06:05;;;;;;;10.30;5.63;;;16.30;99.90;;;;;;4894689;29;20463;-54
2022/09/07 06:08:32;;;;;;;5.80;4.40;;;16.30;99.90;;;;;;4887246;29;20828;-54
2022/09/07 06:11:03;;;;;;;6.90;4.63;;;16.30;99.90;;;;;;4884809;29;20452;-55
2022/09/07 06:13:29;;;;;;;7.70;4.90;;;16.30;99.90;;;;;;4869585;29;20471;-54
2022/09/07 06:16:02;;;;;;;8.73;5.20;;;16.40;99.90;;;;;;4893410;29;20946;-54
2022/09/07 06:18:29;;;;;;;6.83;5.17;;;16.30;99.90;;;;;;4875850;29;20671;-55
2022/09/07 06:20:55;;;;;;;9.10;4.90;;;16.40;99.90;;;;;;4886828;29;20456;-55
2022/09/07 06:23:20;;;;;;;7.43;4.67;;;16.30;99.90;;;;;;4881824;29;20553;-54
2022/09/07 06:25:49;;;;;;;7.23;5.50;;;16.30;99.90;;;;;;4889111;29;20674;-55
2022/09/07 06:28:15;;;;;;;13.00;5.60;;;16.20;99.90;;;;;;4893116;29;20262;-55
2022/09/07 06:30:40;;;;;;;7.43;5.63;;;16.20;99.90;;;;;;4888819;29;21010;-58
2022/09/07 06:33:06;;;;;;;11.60;5.77;;;16.30;99.90;;;;;;4878452;29;20946;-55
2022/09/07 06:35:32;;;;;;;8.57;6.60;;;16.20;99.90;;;;;;4878968;29;20204;-54
2022/09/07 06:37:57;;;;;;;7.83;6.30;;;16.20;99.90;;;;;;4886321;29;20658;-54
2022/09/07 06:40:23;;;;;;;11.83;6.77;;;16.10;99.90;;;;;;4883971;29;20240;-53
2022/09/07 06:42:48;;;;;;;10.73;6.73;;;16.00;99.90;;;;;;4873869;29;20232;-51
2022/09/07 06:45:14;;;;;;;11.20;6.70;;;15.90;99.90;;;;;;4877642;29;20188;-51
2022/09/07 06:47:40;;;;;;;7.67;6.07;;;15.70;99.90;;;;;;4877657;29;20215;-51
2022/09/07 06:50:06;;;;;;;11.30;7.50;;;15.60;99.90;;;;;;4881202;29;20204;-51
2022/09/07 06:52:33;;;;;;;11.60;7.77;;;15.50;99.90;;;;;;4877615;29;20251;-51
2022/09/07 06:54:59;;;;;;;12.77;7.90;;;15.40;1.00;;;;;;4884625;29;20452;-52
2022/09/07 06:57:25;;;;;;;17.17;7.30;;;15.30;1.00;;;;;;4881320;29;20471;-51
2022/09/07 06:59:51;;;;;;;11.77;8.10;;;15.20;1.00;;;;;;4873102;29;20693;-51
2022/09/07 07:02:17;;;;;;;13.93;7.90;;;15.20;1.00;;;;;;4874074;29;20480;-51
2022/09/07 07:04:42;;;;;;;13.47;8.93;;;15.10;1.00;;;;;;4889316;29;20266;-50
2022/09/07 07:07:12;;;;;;;10.90;9.00;;;15.10;1.00;;;;;;4888260;29;20205;-50
2022/09/07 07:09:38;;;;;;;11.07;8.00;;;15.00;1.00;;;;;;4886829;29;20216;-52
2022/09/07 07:12:04;;;;;;;13.03;8.30;;;15.00;1.00;;;;;;4891804;29;20456;-50
2022/09/07 07:14:30;;;;;;;13.60;9.40;;;15.00;1.00;;;;;;4883254;29;21393;-50
2022/09/07 07:16:55;;;;;;;13.50;9.07;;;14.90;1.00;;;;;;4883780;29;20203;-50
2022/09/07 07:19:21;;;;;;;11.57;9.40;;;14.90;99.90;;;;;;4875336;29;20545;-50
2022/09/07 07:21:47;;;;;;;14.70;9.00;;;14.90;99.90;;;;;;4887018;29;20207;-50
2022/09/07 07:24:12;;;;;;;13.60;9.93;;;14.90;99.90;;;;;;4881812;29;20207;-50
2022/09/07 07:26:39;;;;;;;18.53;10.70;;;14.90;99.90;;;;;;4889906;29;20529;-50
2022/09/07 07:29:04;;;;;;;15.07;11.00;;;14.80;1.00;;;;;;4890010;29;20306;-50
2022/09/07 07:31:32;;;;;;;13.53;10.47;;;14.80;1.00;;;;;;4882530;29;20457;-50
2022/09/07 07:33:57;;;;;;;17.80;10.57;;;14.70;1.00;;;;;;4876947;29;20655;-55
2022/09/07 07:36:26;;;;;;;16.03;10.83;;;14.70;46.80;;;;;;4876330;29;20437;-49
2022/09/07 07:38:53;;;;;;;15.37;10.73;;;14.80;99.90;;;;;;4884718;29;20196;-50
2022/09/07 07:41:21;;;;;;;13.40;10.43;;;14.70;99.90;;;;;;4887944;29;20453;-49
2022/09/07 07:43:47;;;;;;;13.27;10.50;;;14.80;1.00;;;;;;4891175;29;20542;-50
2022/09/07 07:46:15;;;;;;;15.50;10.13;;;14.70;23.80;;;;;;4882125;29;20444;-49
2022/09/07 07:48:41;;;;;;;14.10;11.40;;;14.70;99.90;;;;;;4883706;29;20452;-50
2022/09/07 07:51:10;;;;;;;12.27;10.00;;;14.70;99.90;;;;;;4886204;29;20448;-49
2022/09/07 07:53:37;;;;;;;14.40;9.60;;;14.70;99.90;;;;;;4876528;29;20566;-50
2022/09/07 07:56:04;;;;;;;15.90;10.20;;;14.60;1.00;;;;;;4891635;29;20460;-54
2022/09/07 07:58:31;;;;;;;13.43;9.37;;;14.60;1.00;;;;;;4886811;29;20457;-52
2022/09/07 08:01:02;;;;;;;13.53;9.47;;;14.60;99.90;;;;;;4883593;29;20512;-52
2022/09/07 08:03:27;;;;;;;10.47;9.00;;;14.60;1.00;;;;;;4879284;29;20523;-53
2022/09/07 08:05:54;;;;;;;11.30;9.67;;;14.50;1.00;;;;;;4878664;29;20471;-54
2022/09/07 08:08:21;;;;;;;11.80;9.00;;;14.50;1.00;;;;;;4877271;29;20203;-53
2022/09/07 08:10:47;;;;;;;11.90;9.77;;;14.50;99.90;;;;;;4887943;29;20452;-53
2022/09/07 08:13:14;;;;;;;10.57;9.23;;;14.50;1.00;;;;;;4876924;29;20452;-53
2022/09/07 08:15:44;;;;;;;10.37;8.73;;;14.50;1.00;;;;;;4887220;29;20207;-53
2022/09/07 08:18:13;;;;;;;11.50;8.40;;;14.50;1.00;;;;;;4876220;29;20448;-53
2022/09/07 08:20:39;;;;;;;11.50;9.30;;;14.50;1.00;;;;;;4885543;29;20462;-52
2022/09/07 08:23:06;;;;;;;14.40;9.20;;;14.50;99.90;;;;;;4877908;29;20486;-53
2022/09/07 08:25:35;;;;;;;13.03;9.20;;;14.40;99.90;;;;;;4874288;29;20529;-53
2022/09/07 08:28:01;;;;;;;14.40;10.17;;;14.40;99.90;;;;;;4875345;29;20888;-54
2022/09/07 08:30:28;;;;;;;11.37;8.90;;;14.40;1.00;;;;;;4872952;29;20460;-53
2022/09/07 08:32:53;;;;;;;16.47;9.10;;;14.40;1.00;;;;;;4874867;29;20456;-53
2022/09/07 08:35:19;;;;;;;14.63;9.73;;;14.50;1.00;;;;;;4876150;29;20467;-53
2022/09/07 08:37:44;;;;;;;15.10;10.17;;;14.50;63.00;;;;;;4875536;29;20196;-53
2022/09/07 08:40:17;;;;;;;15.30;9.60;;;14.50;99.90;;;;;;4873729;29;20215;-54
2022/09/07 08:43:11;;;;;;;14.70;9.53;;;14.60;1.00;;;;;;4876274;29;20240;-54
2022/09/07 08:45:42;;;;;;;18.23;10.27;;;14.60;1.00;;;;;;4876116;29;20940;-53
2022/09/07 08:48:13;;;;;;;12.03;9.47;;;14.70;1.00;;;;;;4862230;29;20461;-53
2022/09/07 08:50:43;;;;;;;16.50;9.60;;;14.80;1.00;;;;;;4875744;29;20467;-53
2022/09/07 08:53:16;;;;;;;14.93;9.90;;;14.80;1.00;;;;;;4875746;29;20911;-53
2022/09/07 08:55:45;;;;;;;14.00;10.83;;;14.90;99.90;;;;;;4876802;29;20923;-53
2022/09/07 08:58:35;;;;;;;13.80;10.40;;;15.00;99.90;;;;;;4876029;29;20468;-53
2022/09/07 09:01:05;;;;;;;13.30;9.93;;;15.10;1.00;;;;;;4875847;29;20555;-53
2022/09/07 09:03:32;;;;;;;13.93;9.83;;;15.10;1.00;;;;;;4873383;29;20480;-53
2022/09/07 09:06:06;;;;;;;18.63;11.83;;;15.10;1.00;;;;;;4871827;29;21019;-53
2022/09/07 09:09:09;;;;;;;16.00;10.60;;;15.10;1.00;;;;;;4859625;29;20468;-55
2022/09/07 09:12:10;;;;;;;13.67;10.73;;;15.10;99.90;;;;;;4857930;29;20420;-52
2022/09/07 09:14:54;;;;;;;12.90;10.33;;;15.00;99.90;;;;;;4862650;29;20460;-53
2022/09/07 09:17:42;;;;;;;12.93;9.63;;;15.00;99.90;;;;;;4885011;29;20420;-54
2022/09/07 09:20:14;;;;;;;19.70;10.30;;;15.00;99.90;;;;;;4876026;29;20459;-51
2022/09/07 09:22:40;;;;;;;16.87;11.63;;;15.20;1.00;;;;;;4878768;29;20480;-53
2022/09/07 09:25:29;;;;;;;13.80;10.63;;;15.40;99.90;;;;;;4874451;29;20772;-54
2022/09/07 09:27:54;;;;;;;18.43;10.10;;;15.70;99.90;;;;;;4880332;29;20314;-55
2022/09/07 09:30:22;;;;;;;12.13;9.83;;;16.00;1.00;;;;;;4898813;29;21059;-54
2022/09/07 09:32:51;;;;;;;11.73;9.13;;;16.40;1.00;;;;;;4898042;29;20259;-54
2022/09/07 09:35:31;;;;;;;12.77;9.80;;;16.70;1.00;;;;;;4897733;29;20466;-54
2022/09/07 09:37:57;;;;;;;9.77;8.13;;;17.00;99.90;;;;;;4895604;29;20453;-54
2022/09/07 09:40:26;;;;;;;13.37;8.00;;;17.20;20.50;;;;;;4897750;29;20562;-54
2022/09/07 09:43:14;;;;;;;11.00;8.60;;;17.50;1.00;;;;;;4897820;29;20230;-53
2022/09/07 09:45:51;;;;;;;12.33;9.03;;;17.60;1.00;;;;;;4887861;29;20452;-54
2022/09/07 09:48:39;;;;;;;12.60;8.83;;;17.70;1.00;;;;;;4898005;29;20446;-54
2022/09/07 09:51:06;;;;;;;16.33;8.13;;;17.70;1.00;;;;;;4898873;29;20416;-55
2022/09/07 09:53:37;;;;;;;11.13;8.33;;;17.70;1.00;;;;;;4898377;29;21063;-56
2022/09/07 09:56:04;;;;;;;12.43;8.10;;;17.70;1.00;;;;;;4880841;29;20440;-55
2022/09/07 09:58:33;;;;;;;8.13;7.33;;;17.70;1.00;;;;;;4893654;29;20466;-56
2022/09/07 10:01:02;;;;;;;10.80;7.40;;;17.70;1.00;;;;;;4898010;29;20462;-54
2022/09/07 10:03:31;;;;;;;9.93;7.60;;;17.80;1.00;;;;;;4896181;29;20483;-55
2022/09/07 10:05:57;;;;;;;16.57;7.93;;;18.00;1.00;;;;;;4898243;29;20824;-54
2022/09/07 10:08:24;;;;;;;10.43;7.40;;;18.20;1.00;;;;;;4896584;29;20506;-64
2022/09/07 10:11:14;;;;;;;10.67;7.10;;;18.60;1.00;;;;;;4897075;29;20455;-55
2022/09/07 10:13:52;;;;;;;11.17;7.53;;;19.00;1.00;;;;;;4897182;29;20856;-56
2022/09/07 10:16:17;;;;;;;9.97;7.63;;;19.30;99.90;;;;;;4897813;29;20459;-54
2022/09/07 10:18:57;;;;;;;10.50;8.10;;;19.50;99.90;;;;;;4897375;29;20484;-55
2022/09/07 10:21:24;;;;;;;9.70;8.27;;;19.90;99.90;;;;;;4897282;29;20202;-55
2022/09/07 10:24:12;;;;;;;11.90;8.53;;;20.00;99.90;;;;;;4879410;29;20495;-54
2022/09/07 10:26:39;;;;;;;10.87;8.00;;;20.20;99.90;;;;;;4895195;29;20474;-55
2022/09/07 10:29:06;;;;;;;9.90;8.43;;;20.50;99.90;;;;;;4900299;29;20483;-54
2022/09/07 10:31:34;;;;;;;10.80;8.30;;;20.50;99.90;;;;;;4897186;29;20583;-54
2022/09/07 10:34:40;;;;;;;10.93;7.83;;;20.60;99.90;;;;;;4897434;29;20458;-54
2022/09/07 10:37:09;;;;;;;10.53;8.43;;;20.90;99.90;;;;;;4897292;29;20455;-55
2022/09/07 10:40:00;;;;;;;11.00;7.67;;;21.30;99.90;;;;;;4897398;29;20534;-54
2022/09/07 10:42:28;;;;;;;10.73;8.13;;;21.80;99.90;;;;;;4891353;29;20534;-54
2022/09/07 10:44:59;;;;;;;14.73;9.70;;;22.00;99.90;;;;;;4894372;29;20555;-55
2022/09/07 10:48:02;;;;;;;14.00;8.43;;;21.90;99.90;;;;;;4896933;29;20849;-54
2022/09/07 10:50:33;;;;;;;12.43;8.40;;;21.80;99.90;;;;;;4896545;29;20506;-54
2022/09/07 10:53:18;;;;;;;17.97;8.97;;;22.30;99.90;;;;;;4889878;29;20458;-54
2022/09/07 10:56:09;;;;;;;13.90;8.70;;;23.00;99.90;;;;;;4895523;29;20455;-54
2022/09/07 10:59:01;;;;;;;15.47;8.50;;;23.70;99.90;;;;;;4892902;29;20434;-56
2022/09/07 11:01:50;;;;;;;11.00;7.73;;;24.20;99.90;;;;;;4860586;29;20507;-56
2022/09/07 11:04:34;;;;;;;11.80;8.90;;;24.50;99.90;;;;;;4896679;29;20443;-54
2022/09/07 11:07:19;;;;;;;11.53;8.90;;;24.90;99.90;;;;;;4896934;29;20412;-55
2022/09/07 11:10:17;;;;;;;12.80;7.90;;;25.20;99.90;;;;;;4896344;29;20561;-54
2022/09/07 11:12:44;;;;;;;12.67;8.47;;;25.30;99.90;;;;;;4878260;29;20849;-54
2022/09/07 11:15:12;;;;;;;15.00;8.13;;;25.60;99.90;;;;;;4889374;29;20451;-55
2022/09/07 11:17:56;;;;;;;19.53;9.10;;;25.80;99.90;;;;;;4895358;29;20447;-54
2022/09/07 11:20:45;;;;;;;12.40;8.50;;;26.00;99.90;;;;;;4902854;29;20909;-54
2022/09/07 11:23:37;;;;;;;12.23;8.27;;;26.10;99.90;;;;;;4908562;29;20483;-55
2022/09/07 11:26:11;;;;;;;9.17;8.17;;;26.10;99.90;;;;;;4896541;29;20474;-56
2022/09/07 11:29:04;;;;;;;19.40;8.03;;;26.20;99.90;;;;;;4896171;29;20476;-61
2022/09/07 11:31:50;;;;;;;12.00;8.30;;;26.10;99.90;;;;;;4894440;29;20521;-56
2022/09/07 11:34:21;;;;;;;15.70;8.20;;;26.30;99.90;;;;;;4893357;29;20447;-56
2022/09/07 11:37:04;;;;;;;10.47;9.20;;;26.40;99.90;;;;;;4882100;29;20443;-56
2022/09/07 11:39:41;;;;;;;10.67;8.87;;;26.40;99.90;;;;;;4894393;29;21391;-56
2022/09/07 11:42:33;;;;;;;10.53;9.00;;;26.30;99.90;;;;;;4895680;29;20542;-56
2022/09/07 11:45:15;;;;;;;10.13;7.90;;;26.30;99.90;;;;;;4895774;29;20978;-55
2022/09/07 11:48:13;;;;;;;8.67;7.77;;;26.40;99.90;;;;;;4894914;29;20806;-56
2022/09/07 11:50:45;;;;;;;9.47;8.47;;;26.40;99.90;;;;;;4898651;29;20454;-57
2022/09/07 11:53:33;;;;;;;11.17;7.30;;;26.10;99.90;;;;;;4896375;29;20438;-56
2022/09/07 11:56:05;;;;;;;9.00;8.10;;;25.80;99.90;;;;;;4896134;29;20482;-56
2022/09/07 11:58:49;;;;;;;9.47;7.80;;;25.80;99.90;;;;;;4895751;29;20785;-55
2022/09/07 12:01:35;;;;;;;8.73;7.70;;;26.00;99.90;;;;;;4893875;29;20534;-56
2022/09/07 12:04:23;;;;;;;9.83;7.70;;;26.10;99.90;;;;;;4894636;29;20494;-57
2022/09/07 12:06:52;;;;;;;9.10;8.27;;;26.20;99.90;;;;;;4896439;29;20472;-55
2022/09/07 12:09:49;;;;;;;8.30;7.40;;;26.60;99.90;;;;;;4893258;29;20452;-54
2022/09/07 12:12:42;;;;;;;16.80;7.53;;;26.90;99.90;;;;;;4870532;29;20527;-56
2022/09/07 12:15:49;;;;;;;8.73;7.00;;;27.20;99.90;;;;;;4893205;29;20451;-57
2022/09/07 12:18:25;;;;;;;15.47;6.60;;;27.80;99.90;;;;;;4872424;29;20459;-56
2022/09/07 12:20:50;;;;;;;11.07;6.10;;;28.00;99.90;;;;;;4893892;29;20534;-56
2022/09/07 12:23:16;;;;;;;9.27;6.70;;;28.40;99.90;;;;;;4894293;29;20512;-54
2022/09/07 12:25:44;;;;;;;8.37;6.07;;;28.80;99.90;;;;;;4893416;29;21104;-56
2022/09/07 12:28:23;;;;;;;6.93;6.20;;;29.00;99.90;;;;;;4883359;29;20254;-56
2022/09/07 12:30:57;;;;;;;8.97;6.30;;;29.20;99.90;;;;;;4872960;29;20451;-55
2022/09/07 12:33:43;;;;;;;9.80;6.53;;;29.50;99.90;;;;;;4875571;29;20965;-55
2022/09/07 12:36:26;;;;;;;8.43;5.80;;;29.70;99.90;;;;;;4875078;29;20453;-56
2022/09/07 12:39:17;;;;;;;8.17;6.50;;;30.10;99.90;;;;;;4861861;29;20464;-55
2022/09/07 12:41:45;;;;;;;8.30;6.40;;;30.50;99.90;;;;;;4869497;29;20448;-58
2022/09/07 12:44:16;;;;;;;6.20;5.60;;;30.40;99.90;;;;;;4875750;29;20536;-55
2022/09/07 12:46:49;;;;;;;9.23;6.30;;;30.30;99.90;;;;;;4874201;29;20448;-54
2022/09/07 12:49:36;;;;;;;6.63;5.93;;;30.20;99.90;;;;;;4876092;29;20448;-55
2022/09/07 12:52:28;;;;;;;7.23;6.20;;;29.80;99.90;;;;;;4876091;29;20511;-56
2022/09/07 12:55:21;;;;;;;6.43;5.83;;;29.50;99.90;;;;;;4875321;29;20468;-54
2022/09/07 12:58:03;;;;;;;7.27;6.23;;;29.40;99.90;;;;;;4875278;29;20868;-56
2022/09/07 13:00:31;;;;;;;7.47;6.10;;;29.20;99.90;;;;;;4874416;29;20509;-56
2022/09/07 13:03:05;;;;;;;8.80;6.77;;;29.50;99.90;;;;;;4875722;29;20575;-55
2022/09/07 13:05:53;;;;;;;12.33;6.80;;;29.40;99.90;;;;;;4876545;29;20780;-56
2022/09/07 13:08:58;;;;;;;6.67;6.07;;;29.60;99.90;;;;;;4876783;29;20576;-55